Scottish Airport Reports

Civil airfields updated at H+20 and H+50
RAF airfields updated at H+50 only

EGPD - Aberdeen
Distance from station: NNE 19mi, 31km
Updated: 22/01/2021 02:20
Mostly cloudy
Mostly cloudy
 Wind from WNW
Wind: WNW 21 mph , 33 km/h, Gust: 35 mph , 56 km/h
Temperature: 3°C
Wind Chill: -3°C
Dew Point: 1°C
Humidity: 87%
Barometer: 973 hPa
Clouds: Mostly cloudy
Visibility: 6 miles , 10 km
Cloud details: Partly cloudy 1700 ft
Mostly cloudy 4100 ft
2021/01/22 02:20 EGPD 220220Z AUTO 29018G30KT 9999 SCT017 BKN041 03/01 Q0973
EGPN - Dundee
Distance from station: SW 41mi, 66km
Updated: 21/01/2021 15:50
NOT Current
Few Clouds
Few Clouds
 Wind from W
Wind: W 20 mph , 31 km/h
Temperature: 5°C
Wind Chill: 0°C
Dew Point: 1°C
Humidity: 76%
Barometer: 972 hPa
Clouds: Few Clouds
Visibility: 6 miles , 10 km
Cloud details: Few Clouds 2500 ft
2021/01/21 15:50 EGPN 211550Z 27017KT 9999 FEW025 05/01 Q0972
 
EGQS - RAF Lossiemouth
Distance from station: NNW 63mi, 102km
Updated: 22/01/2021 01:50
Mostly cloudy
Mostly cloudy
 Wind from WNW
Wind: WNW 26 mph , 43 km/h
Temperature: 4°C
Wind Chill: -2°C
Dew Point: 2°C
Humidity: 87%
Barometer: 975 hPa
Clouds: Mostly cloudy
Visibility: 6 miles , 10 km
Cloud details: Mostly cloudy 1500 ft
Mostly cloudy 4000 ft
2021/01/22 01:50 EGQS 220150Z 29023KT 9999 BKN015 BKN040 04/02 Q0975 RESHRA RMK WHT
EGPE - Inverness
Distance from station: WNW 73mi, 117km
Updated: 22/01/2021 02:20
Mostly cloudy
Mostly cloudy
 Wind from W
Wind: W 10 mph , 17 km/h
Temperature: 3°C
Wind Chill: -1°C
Dew Point: 1°C
Humidity: 87%
Barometer: 978 hPa
Clouds: Mostly cloudy
Visibility: 6 miles , 10 km
Cloud details: Mostly cloudy 2500 ft
Mostly cloudy 4000 ft
2021/01/22 02:20 EGPE 220220Z 27009KT 9999 BKN025 BKN040 03/01 Q0978
 
EGPH - Edinburgh
Distance from station: SSW 77mi, 125km
Updated: 22/01/2021 02:20
Clear
Clear
 Wind from W
Wind: W 15 mph , 24 km/h
Temperature: 2°C
Wind Chill: -3°C
Dew Point: 0°C
Humidity: 87%
Barometer: 979 hPa
Summary: Clear
Visibility: greater than 7 miles , 10 km
2021/01/22 02:20 EGPH 220220Z 26013KT CAVOK 02/M00 Q0979
EGPC - Wick
Distance from station: NNW 107mi, 172km
Updated: 22/01/2021 02:20
Mostly cloudy
Mostly cloudy
 Wind from NNW
Wind: NNW 23 mph , 37 km/h
Temperature: 3°C
Wind Chill: -3°C
Dew Point: 2°C
Humidity: 93%
Barometer: 973 hPa
Clouds: Mostly cloudy
Visibility: 6 miles , 10 km
Cloud details: Partly cloudy 1300 ft
Partly cloudy 2200 ft
Mostly cloudy 2800 ft
2021/01/22 02:20 EGPC 220220Z AUTO 33020KT 9999 SCT013/// SCT022/// BKN028/// 03/02 Q0973
 
EGPF - Glasgow
Distance from station: SW 107mi, 172km
Updated: 22/01/2021 02:20
Clear
Clear
 Wind from W
Wind: W 16 mph , 26 km/h
Temperature: 3°C
Wind Chill: -2°C
Dew Point: 0°C
Humidity: 81%
Barometer: 981 hPa
Clouds: Clear
Visibility: 6 miles , 10 km
2021/01/22 02:20 EGPF 220220Z AUTO 27014KT 9999 NCD 03/00 Q0981
EGPK - Prestwick
Distance from station: SW 130mi, 209km
Updated: 22/01/2021 02:20
Few Clouds
Few Clouds
 Wind from NW
Wind: NW 13 mph , 20 km/h
Temperature: 2°C
Wind Chill: -3°C
Dew Point: 1°C
Humidity: 93%
Barometer: 983 hPa
Clouds: Few Clouds
Visibility: 6 miles , 10 km
Cloud details: Few Clouds 2800 ft
2021/01/22 02:20 EGPK 220220Z 32011KT 9999 FEW028 02/01 Q0983
 
EGPA - Kirkwall, Orkney
Distance from station: N 140mi, 225km
Updated: 22/01/2021 02:20
Light rain, Mostly cloudy
Light rain, Mostly cloudy
 Wind from N
Wind: N 29 mph , 46 km/h, Gust: 41 mph , 67 km/h
Temperature: 5°C
Wind Chill: -1°C
Dew Point: 1°C
Humidity: 76%
Barometer: 972 hPa
Summary: Light rain
Clouds: Mostly cloudy
Visibility: 6 miles , 10 km
Cloud details: Partly cloudy 2100 ft
Mostly cloudy 4200 ft
2021/01/22 02:20 EGPA 220220Z AUTO 35025G36KT 9999 -RA SCT021/// BKN042/// 05/01 Q0972
EGPO - Stornoway, Outer Hebrides
Distance from station: WNW 169mi, 273km
Updated: 22/01/2021 02:20
Mostly cloudy
Mostly cloudy
 Wind from N
Wind: N 18 mph , 30 km/h
Temperature: 3°C
Wind Chill: -3°C
Dew Point: 1°C
Humidity: 87%
Barometer: 981 hPa
Clouds: Mostly cloudy
Visibility: 6 miles , 10 km
Cloud details: Mostly cloudy 3000 ft
Mostly cloudy 3700 ft
2021/01/22 02:20 EGPO 220220Z AUTO 36016KT 9999 BKN030/// BKN037/// 03/01 Q0981
 
EGPI - Islay, Inner Hebrides
Distance from station: WSW 172mi, 276km
Updated: 22/01/2021 02:20
Few Clouds
Few Clouds
 Wind from NNW
Wind: NNW 17 mph , 28 km/h
Temperature: 3°C
Wind Chill: -3°C
Dew Point: 1°C
Humidity: 87%
Barometer: 984 hPa
Clouds: Few Clouds
Visibility: 4 miles , 7 km
Cloud details: Few Clouds 1100 ft
2021/01/22 02:20 EGPI 220220Z AUTO 34015KT 190V260 7000 UP FEW011/// 03/01 Q0984
EGPU - Tiree, Inner Hebrides
Distance from station: W 172mi, 276km
Updated: 22/01/2021 02:20
Light rain, Clear
Light rain, Clear
 Wind from WNW
Wind: WNW 17 mph , 28 km/h
Temperature: 3°C
Wind Chill: -3°C
Dew Point: 1°C
Humidity: 87%
Barometer: 984 hPa
Summary: Light rain
Clouds: Clear
Visibility: 6 miles , 10 km
2021/01/22 02:20 EGPU 220220Z AUTO 29015KT 260V320 9999 -RA NCD 03/01 Q0984
 
EGPB - Sumburgh, Shetland
Distance from station: NNE 208mi, 332km
Updated: 22/01/2021 02:20
Light rain, Mostly cloudy
Light rain, Mostly cloudy
 Wind from N
Wind: N 21 mph , 33 km/h
Temperature: 4°C
Wind Chill: -2°C
Dew Point: 2°C
Humidity: 87%
Barometer: 968 hPa
Summary: Light rain
Clouds: Mostly cloudy
Visibility: 4 miles , 7 km
Cloud details: Mostly cloudy 1300 ft
Mostly cloudy 2700 ft
2021/01/22 02:20 EGPB 220220Z AUTO 35018KT 7000 -RA BKN013/// BKN027/// 04/02 Q0968
-->